Time;durP1;ratioP1;P1;durP2;ratioP2;P2;SDS_P1;SDS_P2;PMS_P1;PMS_P2;Temp;Humidity;BMP_temperature;BMP_pressure;BME280_temperature;BME280_humidity;BME280_pressure;Samples;Min_cycle;Max_cycle;Signal;HPM_P1;HPM_P2
2021/04/11 00:01:45;;;;;;;63.80;42.35;;;;;;;6.54;100.00;100563.59;3571180;40;20433;-48
2021/04/11 00:04:12;;;;;;;73.95;46.88;;;;;;;6.31;100.00;100567.75;3571877;40;20062;-52
2021/04/11 00:06:38;;;;;;;66.30;43.78;;;;;;;6.53;100.00;100568.63;3571717;40;20131;-47
2021/04/11 00:09:06;;;;;;;73.35;47.55;;;;;;;6.34;100.00;100562.81;3571657;40;20411;-53
2021/04/11 00:11:33;;;;;;;69.60;45.05;;;;;;;6.46;100.00;100557.31;3571741;40;20101;-49
2021/04/11 00:13:59;;;;;;;68.80;46.08;;;;;;;6.52;100.00;100552.50;3570659;40;20057;-48
2021/04/11 00:16:26;;;;;;;67.50;43.70;;;;;;;6.72;100.00;100547.31;3570868;40;20120;-49
2021/04/11 00:18:53;;;;;;;68.57;43.67;;;;;;;6.71;100.00;100550.69;3571492;40;20045;-54
2021/04/11 00:21:19;;;;;;;66.28;43.97;;;;;;;6.73;100.00;100549.91;3571904;40;20091;-50
2021/04/11 00:23:46;;;;;;;65.10;43.30;;;;;;;7.12;100.00;100552.25;3571262;40;20443;-50
2021/04/11 00:26:12;;;;;;;65.13;43.50;;;;;;;6.97;100.00;100551.66;3572223;40;20108;-50
2021/04/11 00:28:39;;;;;;;63.45;43.42;;;;;;;6.70;100.00;100547.28;3571709;40;20418;-51
2021/04/11 00:31:06;;;;;;;66.15;41.78;;;;;;;6.88;100.00;100542.00;3571022;40;20059;-50
2021/04/11 00:33:38;;;;;;;62.55;43.83;;;;;;;7.09;100.00;100547.03;3571748;40;20084;-49
2021/04/11 00:36:08;;;;;;;59.78;40.78;;;;;;;7.32;100.00;100555.53;3572104;40;20429;-54
2021/04/11 00:38:35;;;;;;;65.18;42.67;;;;;;;6.82;100.00;100557.03;3571674;40;20378;-54
2021/04/11 00:41:14;;;;;;;67.78;43.92;;;;;;;6.66;100.00;100558.13;3571459;40;20068;-52
2021/04/11 00:43:42;;;;;;;66.07;46.88;;;;;;;6.36;100.00;100553.53;3571231;40;20075;-50
2021/04/11 00:46:29;;;;;;;70.80;46.17;;;;;;;6.75;100.00;100544.88;3568620;40;20410;-53
2021/04/11 00:48:58;;;;;;;70.15;46.28;;;;;;;6.43;100.00;100551.28;3571081;40;20057;-52
2021/04/11 00:51:27;;;;;;;75.72;49.67;;;;;;;6.41;100.00;100545.25;3571896;40;20072;-52
2021/04/11 00:53:58;;;;;;;73.47;48.10;;;;;;;6.72;100.00;100538.00;3571608;40;20422;-51
2021/04/11 00:56:26;;;;;;;76.95;51.72;;;;;;;6.40;100.00;100530.78;3571925;40;20076;-49
2021/04/11 00:58:52;;;;;;;79.20;49.97;;;;;;;6.40;100.00;100523.16;3571080;40;20092;-51
2021/04/11 01:01:20;;;;;;;83.30;50.97;;;;;;;6.48;100.00;100521.81;3571825;40;20085;-51
2021/04/11 01:03:49;;;;;;;81.07;50.53;;;;;;;6.37;100.00;100517.13;3570984;40;20079;-51
2021/04/11 01:06:20;;;;;;;82.82;53.15;;;;;;;6.39;100.00;100512.13;3571768;40;20057;-52
2021/04/11 01:08:55;;;;;;;82.90;51.97;;;;;;;6.23;100.00;100515.72;3571151;40;20057;-50
2021/04/11 01:11:31;;;;;;;87.63;54.38;;;;;;;6.31;100.00;100503.31;3571561;40;20095;-49
2021/04/11 01:14:02;;;;;;;89.78;54.85;;;;;;;6.29;100.00;100497.31;3571166;40;20072;-50
2021/04/11 01:16:29;;;;;;;96.03;55.80;;;;;;;6.26;100.00;100500.59;3572030;40;20280;-49
2021/04/11 01:18:56;;;;;;;92.82;55.65;;;;;;;6.28;100.00;100498.09;3570967;40;20058;-51
2021/04/11 01:21:45;;;;;;;90.53;56.08;;;;;;;6.45;100.00;100501.31;3571426;40;20068;-51
2021/04/11 01:24:51;;;;;;;84.63;53.63;;;;;;;6.61;100.00;100491.81;3570282;40;20076;-52
2021/04/11 01:27:21;;;;;;;96.38;56.60;;;;;;;6.38;100.00;100485.84;3562943;40;20045;-55
2021/04/11 01:29:49;;;;;;;94.65;57.72;;;;;;;6.35;100.00;100489.91;3564385;40;20097;-52
2021/04/11 01:32:16;;;;;;;97.68;58.75;;;;;;;6.22;100.00;100483.47;3571875;40;20558;-50
2021/04/11 01:34:43;;;;;;;95.70;56.72;;;;;;;6.57;100.00;100484.88;3571080;40;20068;-49
2021/04/11 01:37:14;;;;;;;98.93;58.80;;;;;;;6.55;100.00;100470.34;3571488;40;20060;-49
2021/04/11 01:39:43;;;;;;;100.32;59.13;;;;;;;6.42;100.00;100478.31;3571010;40;20136;-49
2021/04/11 01:42:11;;;;;;;104.50;61.03;;;;;;;6.34;100.00;100470.41;3566790;40;20097;-49
2021/04/11 01:44:40;;;;;;;103.47;63.22;;;;;;;6.25;100.00;100467.50;3571321;40;20259;-47
2021/04/11 01:47:08;;;;;;;105.50;62.53;;;;;;;6.31;100.00;100460.97;3566255;40;20033;-47
2021/04/11 01:49:36;;;;;;;103.57;61.25;;;;;;;6.28;100.00;100458.28;3573512;40;20069;-48
2021/04/11 01:52:08;;;;;;;104.22;61.38;;;;;;;6.28;100.00;100454.88;3572626;40;20081;-52
2021/04/11 01:54:36;;;;;;;104.82;62.42;;;;;;;6.41;100.00;100451.13;3572958;40;20373;-47
2021/04/11 01:57:10;;;;;;;105.18;61.83;;;;;;;6.45;100.00;100448.78;3572609;40;20093;-48
2021/04/11 01:59:36;;;;;;;103.68;62.53;;;;;;;6.35;100.00;100452.63;3572601;40;20305;-49
2021/04/11 02:02:06;;;;;;;108.25;63.92;;;;;;;6.42;100.00;100448.66;3572932;40;20065;-50
2021/04/11 02:04:33;;;;;;;104.43;63.97;;;;;;;6.45;100.00;100446.22;3572998;40;20115;-48
2021/04/11 02:07:03;;;;;;;111.38;65.28;;;;;;;6.42;100.00;100441.00;3572221;40;20105;-46
2021/04/11 02:09:33;;;;;;;112.93;68.30;;;;;;;6.22;100.00;100440.25;3573166;40;20077;-45
2021/04/11 02:12:00;;;;;;;112.50;66.30;;;;;;;6.34;100.00;100428.03;3571711;40;20061;-51
2021/04/11 02:14:27;;;;;;;117.53;68.45;;;;;;;6.41;100.00;100431.66;3573135;40;20057;-49
2021/04/11 02:16:58;;;;;;;105.68;62.97;;;;;;;6.35;100.00;100421.25;3572570;40;20578;-50
2021/04/11 02:19:27;;;;;;;105.15;63.92;;;;;;;6.41;100.00;100421.47;3572788;40;20059;-45
2021/04/11 02:22:00;;;;;;;110.57;65.90;;;;;;;6.35;100.00;100411.09;3572178;40;20045;-49
2021/04/11 02:24:28;;;;;;;112.65;65.93;;;;;;;6.34;100.00;100417.84;3573075;40;20132;-47
2021/04/11 02:26:54;;;;;;;108.72;67.32;;;;;;;6.44;100.00;100413.97;3572158;40;20351;-47
2021/04/11 02:29:24;;;;;;;112.22;64.70;;;;;;;6.30;100.00;100408.38;3572768;40;20097;-45
2021/04/11 02:31:51;;;;;;;117.68;68.63;;;;;;;6.27;100.00;100403.16;3572058;40;20089;-46
2021/04/11 02:34:23;;;;;;;107.25;66.68;;;;;;;6.31;100.00;100399.94;3572655;40;20174;-48
2021/04/11 02:36:56;;;;;;;108.13;65.55;;;;;;;6.45;100.00;100392.81;3572177;40;20369;-51
2021/04/11 02:39:28;;;;;;;105.18;64.22;;;;;;;6.32;100.00;100388.94;3572894;40;20069;-49
2021/04/11 02:41:56;;;;;;;117.00;69.78;;;;;;;6.23;100.00;100380.09;3572226;40;20160;-49
2021/04/11 02:44:22;;;;;;;110.82;66.30;;;;;;;6.63;100.00;100377.38;3572503;40;20064;-50
2021/04/11 02:46:49;;;;;;;112.70;66.50;;;;;;;6.28;100.00;100376.06;3571673;40;20056;-51
2021/04/11 02:49:20;;;;;;;110.88;65.07;;;;;;;6.61;100.00;100373.91;3572595;40;20044;-53
2021/04/11 02:51:48;;;;;;;110.97;66.20;;;;;;;6.48;100.00;100375.13;3571833;40;20056;-46
2021/04/11 02:54:18;;;;;;;107.30;65.43;;;;;;;6.54;100.00;100367.72;3571892;40;20067;-47
2021/04/11 02:56:46;;;;;;;107.22;64.70;;;;;;;6.42;100.00;100368.94;3572080;40;20144;-51
2021/04/11 02:59:16;;;;;;;104.80;64.75;;;;;;;6.38;100.00;100365.44;3572687;40;20356;-50
2021/04/11 03:01:46;;;;;;;104.68;63.97;;;;;;;6.54;100.00;100356.69;3572075;40;20125;-50
2021/04/11 03:04:15;;;;;;;105.80;63.60;;;;;;;6.63;100.00;100357.88;3572447;40;20122;-50
2021/04/11 03:06:47;;;;;;;109.80;66.60;;;;;;;6.33;100.00;100349.13;3572075;40;20100;-49
2021/04/11 03:09:21;;;;;;;109.43;66.50;;;;;;;6.28;100.00;100348.94;3569562;40;20055;-46
2021/04/11 03:11:55;;;;;;;111.05;65.78;;;;;;;6.47;100.00;100336.91;3567734;40;20092;-49
2021/04/11 03:14:26;;;;;;;116.57;65.63;;;;;;;6.30;100.00;100334.63;3563808;40;20413;-48
2021/04/11 03:16:54;;;;;;;110.32;65.88;;;;;;;6.47;100.00;100327.63;3571399;40;20057;-51
2021/04/11 03:19:45;;;;;;;120.13;68.38;;;;;;;6.29;100.00;100342.22;3568880;40;20366;-53
2021/04/11 03:22:14;;;;;;;109.10;67.38;;;;;;;6.32;100.00;100347.41;3564179;40;20089;-49
2021/04/11 03:24:40;;;;;;;113.20;67.88;;;;;;;6.38;100.00;100345.09;3561671;40;20383;-47
2021/04/11 03:27:16;;;;;;;100.00;61.85;;;;;;;6.74;100.00;100357.41;3567864;40;20045;-52
2021/04/11 03:29:50;;;;;;;109.50;65.60;;;;;;;6.72;100.00;100356.50;3571972;40;20073;-50
2021/04/11 03:32:26;;;;;;;105.43;67.13;;;;;;;6.38;100.00;100353.59;3572138;40;20069;-50
2021/04/11 03:34:56;;;;;;;101.75;63.33;;;;;;;6.61;100.00;100345.94;3571798;40;20187;-54
2021/04/11 03:37:24;;;;;;;111.18;66.05;;;;;;;6.48;100.00;100348.84;3572237;40;20085;-54
2021/04/11 03:39:51;;;;;;;110.53;64.55;;;;;;;6.41;100.00;100336.69;3571778;40;20053;-49
2021/04/11 03:42:21;;;;;;;106.18;67.00;;;;;;;6.32;100.00;100327.06;3572248;40;20087;-54
2021/04/11 03:44:48;;;;;;;113.47;67.13;;;;;;;6.32;100.00;100330.47;3571749;40;20140;-50
2021/04/11 03:47:44;;;;;;;116.82;69.40;;;;;;;6.23;100.00;100316.53;3569471;40;20088;-52
2021/04/11 03:50:34;;;;;;;113.53;67.73;;;;;;;6.37;100.00;100320.44;3570765;40;20048;-56
2021/04/11 03:53:24;;;;;;;118.88;68.28;;;;;;;6.21;100.00;100320.72;3570755;40;20329;-52
2021/04/11 03:55:53;;;;;;;119.22;70.85;;;;;;;6.16;100.00;100322.22;3571425;40;20086;-50
2021/04/11 03:58:31;;;;;;;113.20;65.85;;;;;;;6.20;100.00;100322.41;3572193;40;20071;-49
2021/04/11 04:01:12;;;;;;;110.43;65.00;;;;;;;6.21;100.00;100305.47;3571225;40;20065;-50
2021/04/11 04:03:42;;;;;;;110.50;65.55;;;;;;;6.16;100.00;100309.50;3571637;40;20136;-54
2021/04/11 04:06:20;;;;;;;119.78;70.47;;;;;;;6.10;100.00;100313.56;3565365;40;20426;-52
2021/04/11 04:08:47;;;;;;;119.72;72.10;;;;;;;6.03;100.00;100310.72;3563866;40;20423;-50
2021/04/11 04:11:26;;;;;;;117.18;71.38;;;;;;;6.07;100.00;100308.34;3569288;40;20478;-53
2021/04/11 04:14:24;;;;;;;122.80;72.38;;;;;;;6.05;100.00;100304.00;3571372;40;20477;-53
2021/04/11 04:17:18;;;;;;;116.05;68.57;;;;;;;6.27;100.00;100303.13;3571176;40;20053;-48
2021/04/11 04:20:21;;;;;;;115.60;70.40;;;;;;;6.12;100.00;100298.34;3570983;40;20095;-49
2021/04/11 04:22:48;;;;;;;113.72;70.65;;;;;;;6.19;100.00;100297.75;3564137;40;20048;-49
2021/04/11 04:25:39;;;;;;;113.00;66.88;;;;;;;6.28;100.00;100289.59;3572154;40;20093;-51
2021/04/11 04:28:26;;;;;;;114.95;67.65;;;;;;;6.20;100.00;100286.81;3571682;40;20033;-53
2021/04/11 04:31:06;;;;;;;109.78;65.60;;;;;;;6.17;100.00;100283.28;3568623;40;20076;-50
2021/04/11 04:33:53;;;;;;;111.25;66.45;;;;;;;6.26;100.00;100283.63;3571818;40;20056;-50
2021/04/11 04:36:37;;;;;;;107.10;65.88;;;;;;;6.27;100.00;100286.19;3569334;40;20355;-50
2021/04/11 04:39:34;;;;;;;102.25;62.35;;;;;;;6.33;100.00;100272.84;3571118;40;20056;-51
2021/04/11 04:42:31;;;;;;;106.72;64.72;;;;;;;6.35;100.00;100273.78;3570773;40;20061;-50
2021/04/11 04:45:24;;;;;;;101.72;62.97;;;;;;;6.25;100.00;100276.81;3571114;40;20193;-50
2021/04/11 04:48:19;;;;;;;110.57;65.05;;;;;;;6.23;100.00;100273.31;3571346;40;20072;-52
2021/04/11 04:50:48;;;;;;;105.43;64.97;;;;;;;6.25;100.00;100280.22;3571378;40;20045;-48
2021/04/11 04:53:37;;;;;;;99.18;60.10;;;;;;;6.49;100.00;100284.44;3571771;40;20088;-49
2021/04/11 04:56:06;;;;;;;93.22;59.40;;;;;;;6.50;100.00;100273.44;3572027;40;20052;-48
2021/04/11 04:58:45;;;;;;;91.00;58.47;;;;;;;6.47;100.00;100275.88;3572163;40;20068;-51
2021/04/11 05:01:34;;;;;;;85.60;55.05;;;;;;;7.13;100.00;100315.50;3565832;40;20080;-51
2021/04/11 05:04:12;;;;;;;91.85;57.13;;;;;;;7.06;100.00;100322.88;3569491;40;20045;-54
2021/04/11 05:06:46;;;;;;;87.70;56.72;;;;;;;6.42;100.00;100316.41;3566709;40;20053;-49
2021/04/11 05:09:34;;;;;;;93.68;57.95;;;;;;;6.53;100.00;100304.09;3565383;40;20064;-49
2021/04/11 05:12:03;;;;;;;99.50;60.95;;;;;;;6.28;100.00;100295.56;3570636;40;20089;-53
2021/04/11 05:14:35;;;;;;;98.10;61.30;;;;;;;6.54;100.00;100296.50;3571387;40;20435;-48
2021/04/11 05:17:27;;;;;;;93.85;57.88;;;;;;;6.47;100.00;100296.22;3570860;40;20406;-50
2021/04/11 05:20:01;;;;;;;93.57;59.03;;;;;;;6.46;100.00;100291.94;3572590;40;20045;-49
2021/04/11 05:22:45;;;;;;;93.90;59.80;;;;;;;6.29;100.00;100294.78;3572922;40;20334;-52
2021/04/11 05:25:34;;;;;;;87.60;58.25;;;;;;;6.60;100.00;100295.84;3572488;40;20243;-50
2021/04/11 05:28:08;;;;;;;92.78;57.67;;;;;;;6.60;100.00;100285.66;3571056;40;20185;-54
2021/04/11 05:30:46;;;;;;;84.97;57.75;;;;;;;6.69;100.00;100287.66;3567898;40;20362;-49
2021/04/11 05:33:17;;;;;;;81.68;56.03;;;;;;;6.65;100.00;100281.59;3562905;40;20060;-49
2021/04/11 05:35:47;;;;;;;93.45;60.15;;;;;;;6.45;100.00;100285.13;3562226;40;20053;-47
2021/04/11 05:38:31;;;;;;;92.88;59.67;;;;;;;6.45;100.00;100285.13;3563729;40;20056;-47
2021/04/11 05:41:14;;;;;;;86.70;56.33;;;;;;;6.91;100.00;100287.59;3564273;40;20194;-49
2021/04/11 05:43:56;;;;;;;90.18;57.55;;;;;;;6.77;100.00;100281.19;3561842;40;20053;-48
2021/04/11 05:47:07;;;;;;;86.05;54.63;;;;;;;7.10;100.00;100289.94;3561636;40;20331;-48
2021/04/11 05:49:47;;;;;;;88.65;54.42;;;;;;;6.94;100.00;100280.06;3565147;40;20061;-49
2021/04/11 05:52:24;;;;;;;79.43;53.45;;;;;;;7.34;100.00;100284.78;3565399;40;20417;-51
2021/04/11 05:54:54;;;;;;;80.63;52.80;;;;;;;7.27;100.00;100279.44;3570869;40;20080;-50
2021/04/11 05:57:28;;;;;;;80.00;52.33;;;;;;;7.14;100.00;100278.19;3571376;40;20057;-52
2021/04/11 06:00:07;;;;;;;81.45;52.75;;;;;;;7.08;100.00;100283.09;3570681;40;20439;-50
2021/04/11 06:02:46;;;;;;;81.43;52.65;;;;;;;7.02;100.00;100277.75;3568392;40;20515;-48
2021/04/11 06:05:40;;;;;;;81.70;53.05;;;;;;;7.12;100.00;100274.72;3563636;40;20057;-48
2021/04/11 06:08:25;;;;;;;79.55;53.42;;;;;;;7.15;100.00;100274.81;3566069;40;20053;-48
2021/04/11 06:11:18;;;;;;;79.18;50.28;;;;;;;7.24;100.00;100270.00;3561697;40;20330;-48
2021/04/11 06:14:13;;;;;;;77.22;51.72;;;;;;;7.68;99.87;100265.47;3560155;40;20117;-48
2021/04/11 06:16:40;;;;;;;85.78;53.45;;;;;;;7.35;100.00;100255.97;3562149;40;20430;-51
2021/04/11 06:19:08;;;;;;;78.50;51.58;;;;;;;7.88;99.52;100261.81;3561177;40;20089;-52
2021/04/11 06:21:59;;;;;;;80.70;52.08;;;;;;;7.90;99.78;100255.09;3560847;40;20065;-51
2021/04/11 06:24:42;;;;;;;72.50;48.22;;;;;;;8.07;98.56;100253.00;3560012;40;20337;-51
2021/04/11 06:27:18;;;;;;;69.85;48.65;;;;;;;8.14;98.90;100252.38;3560804;40;20158;-50
2021/04/11 06:30:03;;;;;;;72.47;49.08;;;;;;;8.35;97.46;100254.66;3566701;40;20076;-49
2021/04/11 06:32:36;;;;;;;67.75;49.38;;;;;;;8.79;96.51;100249.91;3572329;40;20363;-49
2021/04/11 06:35:09;;;;;;;65.10;46.78;;;;;;;9.53;92.76;100251.69;3571966;40;20152;-49
2021/04/11 06:37:38;;;;;;;60.42;42.03;;;;;;;9.61;89.98;100245.03;3572544;40;20100;-51
2021/04/11 06:40:21;;;;;;;62.20;43.33;;;;;;;9.31;90.16;100237.53;3572512;40;20092;-51
2021/04/11 06:42:54;;;;;;;62.72;44.05;;;;;;;9.17;90.83;100237.22;3571946;40;20546;-52
2021/04/11 06:45:29;;;;;;;62.47;42.47;;;;;;;9.24;89.76;100218.63;3572891;40;20431;-48
2021/04/11 06:48:15;;;;;;;59.60;40.38;;;;;;;9.67;88.39;100230.72;3571795;40;20528;-50
2021/04/11 06:51:07;;;;;;;51.22;37.45;;;;;;;10.75;81.61;100233.69;3572114;40;20131;-50
2021/04/11 06:53:58;;;;;;;50.97;34.22;;;;;;;11.67;78.10;100241.13;3569137;40;20331;-52
2021/04/11 06:56:36;;;;;;;46.67;34.13;;;;;;;11.87;76.83;100232.88;3568148;40;20049;-52
2021/04/11 06:59:32;;;;;;;46.65;35.55;;;;;;;12.29;73.97;100229.09;3571883;40;20049;-48
2021/04/11 07:02:03;;;;;;;46.58;34.92;;;;;;;12.68;72.67;100229.53;3571825;40;20347;-53
2021/04/11 07:04:49;;;;;;;45.10;31.85;;;;;;;11.83;75.71;100221.72;3561918;40;20061;-48
2021/04/11 07:07:43;;;;;;;47.17;34.85;;;;;;;11.27;79.34;100226.00;3560992;40;20101;-51
2021/04/11 07:10:28;;;;;;;48.03;35.60;;;;;;;10.70;81.63;100215.69;3560497;40;20052;-47
2021/04/11 07:13:16;;;;;;;52.95;37.33;;;;;;;10.57;80.00;100215.44;3567366;40;20379;-53
2021/04/11 07:16:04;;;;;;;55.55;37.67;;;;;;;10.60;80.30;100210.41;3572057;40;20049;-55
2021/04/11 07:18:52;;;;;;;50.60;35.58;;;;;;;10.41;81.23;100215.19;3572053;40;20049;-48
2021/04/11 07:21:56;;;;;;;48.92;34.72;;;;;;;10.56;81.15;100208.63;3572308;40;20084;-50
2021/04/11 07:24:46;;;;;;;53.97;35.40;;;;;;;10.67;80.17;100222.47;3563853;40;20123;-50
2021/04/11 07:27:47;;;;;;;49.53;32.30;;;;;;;11.02;77.56;100224.78;3557468;40;20049;-53
2021/04/11 07:30:45;;;;;;;47.65;33.58;;;;;;;10.62;80.32;100219.81;3562790;40;20064;-50
2021/04/11 07:33:57;;;;;;;46.22;33.20;;;;;;;10.68;80.71;100229.31;3559613;40;20459;-48
2021/04/11 07:36:29;;;;;;;45.13;32.88;;;;;;;10.80;80.96;100226.97;3566758;40;20057;-51
2021/04/11 07:39:22;;;;;;;45.22;33.20;;;;;;;11.20;80.08;100228.47;3567914;40;20061;-52
2021/04/11 07:42:11;;;;;;;49.05;32.40;;;;;;;10.93;80.23;100220.34;3572078;40;20108;-50
2021/04/11 07:45:00;;;;;;;45.45;32.42;;;;;;;11.13;81.46;100225.78;3572313;40;20045;-53
2021/04/11 07:47:41;;;;;;;41.65;29.73;;;;;;;11.28;78.19;100218.34;3567972;40;20049;-50
2021/04/11 07:50:24;;;;;;;41.05;29.92;;;;;;;11.41;78.99;100224.50;3567165;40;20124;-51
2021/04/11 07:52:53;;;;;;;40.08;30.45;;;;;;;11.18;78.92;100219.03;3569468;40;20060;-51
2021/04/11 07:55:49;;;;;;;37.60;28.40;;;;;;;11.36;77.51;100218.44;3566769;40;20084;-49
2021/04/11 07:58:45;;;;;;;43.88;28.50;;;;;;;11.08;78.51;100214.59;3572449;40;20524;-50
2021/04/11 08:01:46;;;;;;;37.13;26.70;;;;;;;11.63;76.35;100221.41;3568903;40;20052;-50
2021/04/11 08:04:32;;;;;;;40.83;26.95;;;;;;;12.03;74.92;100216.84;3572064;40;20049;-50
2021/04/11 08:07:01;;;;;;;32.55;23.48;;;;;;;12.20;73.71;100219.59;3571556;40;20077;-51
2021/04/11 08:09:51;;;;;;;33.00;25.80;;;;;;;12.08;74.82;100209.19;3572309;40;20084;-51
2021/04/11 08:12:49;;;;;;;35.65;25.30;;;;;;;12.47;73.29;100216.47;3572094;40;20068;-51
2021/04/11 08:15:32;;;;;;;30.85;22.33;;;;;;;13.28;67.87;100216.34;3572162;40;20225;-49
2021/04/11 08:18:17;;;;;;;31.08;22.20;;;;;;;13.88;67.01;100212.41;3571595;40;20061;-49
2021/04/11 08:20:55;;;;;;;31.52;20.83;;;;;;;13.88;67.09;100212.41;3567652;40;20128;-49
2021/04/11 08:23:46;;;;;;;26.70;20.60;;;;;;;14.33;62.28;100208.25;3561010;40;20046;-50
2021/04/11 08:26:12;;;;;;;28.80;20.45;;;;;;;13.88;63.15;100204.69;3565393;40;20044;-52
2021/04/11 08:28:53;;;;;;;30.50;21.10;;;;;;;13.76;64.65;100195.19;3565156;40;20037;-52
2021/04/11 08:31:44;;;;;;;31.30;21.08;;;;;;;13.29;65.74;100202.63;3564162;40;20086;-50
2021/04/11 08:34:32;;;;;;;27.50;18.70;;;;;;;13.30;65.08;100202.63;3569328;40;20041;-48
2021/04/11 08:37:23;;;;;;;25.17;19.90;;;;;;;13.08;68.14;100196.47;3570523;40;20057;-49
2021/04/11 08:40:09;;;;;;;28.60;19.05;;;;;;;13.21;67.95;100198.25;3570817;40;20041;-50
2021/04/11 08:42:38;;;;;;;30.73;19.27;;;;;;;13.80;64.36;100189.22;3571605;40;20052;-50
2021/04/11 08:45:23;;;;;;;23.42;17.65;;;;;;;14.22;65.24;100191.06;3571176;40;20063;-51
2021/04/11 08:48:24;;;;;;;24.58;17.25;;;;;;;14.36;64.75;100185.09;3570322;40;20084;-52
2021/04/11 08:51:04;;;;;;;20.38;15.40;;;;;;;14.77;61.28;100190.34;3570624;40;20069;-55
2021/04/11 08:53:40;;;;;;;22.40;16.38;;;;;;;15.67;58.58;100190.25;3571472;40;20067;-50
2021/04/11 08:56:13;;;;;;;;;;;;;;;16.33;55.89;100189.09;3568939;40;20135;-52
2021/04/11 08:59:08;;;;;;;20.67;15.50;;;;;;;17.15;54.55;100195.41;3566595;40;20232;-53
2021/04/11 09:02:00;;;;;;;19.83;14.05;;;;;;;15.84;53.88;100179.00;3568371;40;20061;-51
2021/04/11 09:04:34;;;;;;;17.73;14.30;;;;;;;15.58;56.35;100181.66;3562943;40;20049;-50
2021/04/11 09:07:17;;;;;;;19.50;14.45;;;;;;;16.44;54.77;100182.13;3569674;40;20049;-50
2021/04/11 09:10:06;;;;;;;18.70;13.77;;;;;;;16.26;55.06;100183.09;3562150;40;20071;-50
2021/04/11 09:13:21;;;;;;;27.85;17.00;;;;;;;16.60;52.78;100183.75;3567780;40;20174;-54
2021/04/11 09:16:09;;;;;;;19.60;13.77;;;;;;;16.98;53.27;100178.31;3568485;40;20063;-52
2021/04/11 09:18:44;;;;;;;22.13;14.50;;;;;;;17.37;50.94;100175.34;3562952;40;20405;-55
2021/04/11 09:21:29;;;;;;;18.55;14.73;;;;;;;17.35;50.06;100177.94;3564792;40;20056;-50
2021/04/11 09:24:10;;;;;;;19.85;14.18;;;;;;;17.51;52.05;100173.44;3571047;40;20100;-51
2021/04/11 09:26:39;;;;;;;18.20;13.95;;;;;;;17.93;49.86;100179.03;3564592;40;20501;-51
2021/04/11 09:29:24;;;;;;;18.25;14.15;;;;;;;17.23;52.78;100176.31;3562130;40;20045;-50
2021/04/11 09:32:25;;;;;;;20.63;14.63;;;;;;;18.22;49.67;100168.31;3570544;40;20431;-51
2021/04/11 09:35:34;;;;;;;16.10;12.65;;;;;;;18.54;49.74;100168.69;3570910;40;20648;-55
2021/04/11 09:38:42;;;;;;;17.80;13.82;;;;;;;18.10;49.52;100171.06;3567481;40;20108;-53
2021/04/11 09:41:23;;;;;;;15.50;12.65;;;;;;;17.91;50.37;100157.47;3561188;40;20088;-54
2021/04/11 09:44:08;;;;;;;17.15;12.80;;;;;;;18.75;49.65;100164.06;3571013;40;20071;-53
2021/04/11 09:47:08;;;;;;;16.40;11.98;;;;;;;17.92;50.23;100157.47;3571503;40;20712;-52
2021/04/11 09:50:01;;;;;;;16.23;12.07;;;;;;;19.01;48.71;100159.28;3568038;40;20053;-51
2021/04/11 09:52:55;;;;;;;13.98;10.32;;;;;;;18.12;47.91;100153.75;3567176;40;20334;-52
2021/04/11 09:55:33;;;;;;;15.13;10.57;;;;;;;20.13;41.99;100161.47;3571836;40;20372;-51
2021/04/11 09:58:37;;;;;;;12.65;10.00;;;;;;;21.94;38.99;100158.56;3570563;40;20081;-52
2021/04/11 10:01:18;;;;;;;14.65;10.50;;;;;;;23.62;35.09;100163.50;3562031;40;20053;-51
2021/04/11 10:04:00;;;;;;;12.75;9.75;;;;;;;22.80;37.21;100158.50;3563428;40;20110;-53
2021/04/11 10:06:44;;;;;;;13.68;9.80;;;;;;;22.65;36.82;100156.38;3566966;40;20060;-53
2021/04/11 10:09:48;;;;;;;14.60;9.38;;;;;;;22.36;37.59;100163.38;3566540;40;20096;-50
2021/04/11 10:12:48;;;;;;;13.75;9.05;;;;;;;21.86;39.45;100160.53;3572817;40;20057;-51
2021/04/11 10:15:20;;;;;;;13.90;9.75;;;;;;;21.93;38.75;100163.81;3561280;40;20061;-50
2021/04/11 10:18:01;;;;;;;11.32;8.60;;;;;;;21.79;38.00;100159.00;3564377;40;20061;-51
2021/04/11 10:20:46;;;;;;;11.38;8.32;;;;;;;21.41;38.19;100154.88;3572808;40;20060;-53
2021/04/11 10:23:20;;;;;;;12.63;8.00;;;;;;;21.64;40.13;100139.47;3572603;40;20057;-52
2021/04/11 10:25:56;;;;;;;10.82;8.07;;;;;;;21.58;39.74;100148.31;3564768;40;20113;-50
2021/04/11 10:28:43;;;;;;;14.80;9.18;;;;;;;22.05;37.29;100148.66;3570333;40;20053;-55
2021/04/11 10:31:15;;;;;;;;;;;;;;;22.11;37.69;100142.41;3569905;40;20053;-53
2021/04/11 10:34:10;;;;;;;10.23;7.60;;;;;;;22.44;35.45;100145.75;3572432;40;20302;-54
2021/04/11 10:36:45;;;;;;;10.88;7.88;;;;;;;22.49;37.14;100143.00;3572614;40;20041;-51
2021/04/11 10:39:26;;;;;;;11.15;7.75;;;;;;;22.14;35.92;100147.56;3569443;40;20052;-51
2021/04/11 10:42:09;;;;;;;13.18;8.05;;;;;;;22.77;37.48;100149.00;3572200;40;20093;-51
2021/04/11 10:45:08;;;;;;;12.20;7.63;;;;;;;22.70;35.37;100144.06;3572358;40;20053;-52
2021/04/11 10:47:59;;;;;;;10.07;8.00;;;;;;;23.83;34.28;100150.56;3565526;40;20045;-54
2021/04/11 10:51:14;;;;;;;11.98;7.53;;;;;;;24.96;32.26;100153.03;3568169;40;20089;-53
2021/04/11 10:54:02;;;;;;;8.65;6.63;;;;;;;28.13;27.78;100152.47;3571731;40;20757;-51
2021/04/11 10:56:49;;;;;;;10.43;7.43;;;;;;;29.47;26.58;100155.25;3568733;40;20056;-53
2021/04/11 10:59:54;;;;;;;13.98;7.90;;;;;;;29.37;24.46;100153.19;3572537;40;20104;-51
2021/04/11 11:02:20;;;;;;;10.32;7.65;;;;;;;29.94;24.58;100149.66;3567299;40;20084;-52
2021/04/11 11:05:22;;;;;;;9.63;7.70;;;;;;;28.45;26.11;100152.47;3572021;40;20081;-50
2021/04/11 11:08:07;;;;;;;12.38;7.60;;;;;;;29.14;25.15;100151.94;3571697;40;20068;-51
2021/04/11 11:11:08;;;;;;;11.07;7.82;;;;;;;31.98;21.38;100165.88;3572379;40;20051;-50
2021/04/11 11:13:53;;;;;;;11.30;7.70;;;;;;;31.04;23.64;100147.75;3570441;40;20079;-50
2021/04/11 11:16:41;;;;;;;11.70;8.30;;;;;;;31.09;23.84;100148.25;3567520;40;20052;-51
2021/04/11 11:19:49;;;;;;;8.70;7.28;;;;;;;31.75;21.45;100142.84;3568276;40;20413;-51
2021/04/11 11:22:45;;;;;;;9.23;7.35;;;;;;;29.33;24.07;100137.63;3572137;40;20079;-51
2021/04/11 11:25:39;;;;;;;12.10;8.02;;;;;;;32.66;21.00;100149.41;3572198;40;20501;-53
2021/04/11 11:28:24;;;;;;;10.32;7.05;;;;;;;31.93;21.75;100149.50;3572115;40;20131;-50
2021/04/11 11:31:25;;;;;;;14.90;7.97;;;;;;;32.33;21.31;100142.13;3571824;40;20065;-50
2021/04/11 11:34:05;;;;;;;10.57;7.45;;;;;;;32.82;21.32;100146.44;3564117;40;20059;-50
2021/04/11 11:36:45;;;;;;;10.75;7.78;;;;;;;31.24;23.21;100142.88;3572405;40;20044;-53
2021/04/11 11:39:35;;;;;;;10.38;7.43;;;;;;;34.33;18.65;100154.06;3572412;40;20085;-50
2021/04/11 11:42:16;;;;;;;10.70;6.80;;;;;;;35.08;19.38;100153.13;3571304;40;20057;-53
2021/04/11 11:45:03;;;;;;;8.88;6.65;;;;;;;33.27;20.33;100145.69;3571839;40;20374;-56
2021/04/11 11:47:34;;;;;;;9.13;7.07;;;;;;;32.37;20.93;100138.34;3572133;40;20097;-49
2021/04/11 11:50:05;;;;;;;8.27;6.97;;;;;;;30.90;22.17;100129.31;3571451;40;20053;-51
2021/04/11 11:52:56;;;;;;;9.43;7.03;;;;;;;33.20;20.46;100134.72;3561360;40;20057;-52
2021/04/11 11:55:40;;;;;;;8.40;6.63;;;;;;;34.50;19.11;100140.25;3566560;40;20060;-50
2021/04/11 11:58:15;;;;;;;7.50;6.75;;;;;;;32.94;19.91;100123.47;3565357;40;20052;-51
2021/04/11 12:00:45;;;;;;;;;;;;;;;30.17;23.01;100119.16;3571983;40;20049;-53
2021/04/11 12:03:25;;;;;;;7.50;6.60;;;;;;;32.39;21.13;100120.50;3571077;40;19973;-49
2021/04/11 12:05:58;;;;;;;6.47;5.55;;;;;;;33.59;20.51;100122.78;3571689;40;20075;-53
2021/04/11 12:08:55;;;;;;;9.00;6.05;;;;;;;34.55;19.23;100129.22;3572146;40;20052;-51